Time;durP1;ratioP1;P1;durP2;ratioP2;P2;SDS_P1;SDS_P2;PMS_P1;PMS_P2;Temp;Humidity;BMP_temperature;BMP_pressure;BME280_temperature;BME280_humidity;BME280_pressure;Samples;Min_cycle;Max_cycle;Signal;HPM_P1;HPM_P2
2021/08/08 00:02:21;;;;;;;30.10;4.40;;;15.30;82.10;;;;;;5090934;28;20055;-90
2021/08/08 00:04:48;;;;;;;27.80;4.57;;;15.30;82.10;;;;;;5090901;28;20051;-94
2021/08/08 00:07:16;;;;;;;22.95;4.13;;;15.30;82.10;;;;;;5091071;28;20040;-89
2021/08/08 00:09:45;;;;;;;20.70;4.40;;;15.30;82.10;;;;;;5091121;28;20498;-92
2021/08/08 00:12:12;;;;;;;23.85;4.70;;;15.30;82.10;;;;;;5075670;28;20106;-89
2021/08/08 00:14:39;;;;;;;18.85;3.80;;;15.30;82.00;;;;;;5088795;28;20048;-92
2021/08/08 00:17:06;;;;;;;22.05;4.55;;;15.30;82.00;;;;;;5090932;28;20413;-89
2021/08/08 00:19:33;;;;;;;24.70;4.63;;;15.40;82.00;;;;;;5090956;28;20044;-88
2021/08/08 00:22:00;;;;;;;26.98;4.22;;;15.30;81.90;;;;;;5090761;28;20164;-90
2021/08/08 00:24:27;;;;;;;21.33;4.68;;;15.30;81.80;;;;;;5090702;28;20051;-91
2021/08/08 00:26:54;;;;;;;21.95;4.15;;;15.30;81.80;;;;;;5091282;28;20551;-89
2021/08/08 00:29:21;;;;;;;18.52;4.18;;;15.30;81.80;;;;;;5092375;28;20044;-91
2021/08/08 00:31:48;;;;;;;24.80;4.05;;;15.30;81.70;;;;;;5090643;28;20551;-87
2021/08/08 00:34:15;;;;;;;29.63;4.53;;;15.30;81.80;;;;;;5089122;28;20051;-90
2021/08/08 00:36:42;;;;;;;22.02;3.95;;;15.30;81.80;;;;;;5090497;28;20044;-89
2021/08/08 00:39:09;;;;;;;25.38;4.93;;;15.30;81.80;;;;;;5089820;28;20052;-89
2021/08/08 00:41:37;;;;;;;18.98;3.50;;;15.30;81.70;;;;;;5092456;28;20044;-89
2021/08/08 00:44:04;;;;;;;21.92;4.25;;;15.30;81.70;;;;;;5090234;28;20052;-93
2021/08/08 00:46:31;;;;;;;20.27;4.13;;;15.20;81.70;;;;;;5090406;28;20106;-91
2021/08/08 00:48:59;;;;;;;32.42;4.35;;;15.20;81.60;;;;;;5090307;28;20048;-87
2021/08/08 00:51:30;;;;;;;20.80;3.88;;;15.20;81.70;;;;;;5090562;28;20047;-89
2021/08/08 00:53:57;;;;;;;25.77;4.18;;;15.20;81.70;;;;;;5090317;28;20051;-89
2021/08/08 00:56:26;;;;;;;20.33;4.75;;;15.20;81.70;;;;;;5091094;28;20048;-88
2021/08/08 00:58:52;;;;;;;17.17;4.05;;;15.10;81.70;;;;;;5090055;28;20044;-88
2021/08/08 01:01:24;;;;;;;17.02;3.92;;;15.20;81.70;;;;;;5090177;28;20044;-91
2021/08/08 01:03:53;;;;;;;20.15;3.67;;;15.10;81.60;;;;;;5090822;28;20131;-89
2021/08/08 01:06:30;;;;;;;18.83;4.25;;;15.10;81.60;;;;;;5094402;28;20043;-89
2021/08/08 01:09:03;;;;;;;19.55;4.60;;;15.10;81.70;;;;;;5094614;28;20044;-90
2021/08/08 01:11:31;;;;;;;23.93;3.97;;;15.10;81.70;;;;;;5094929;28;20055;-88
2021/08/08 01:13:59;;;;;;;26.38;4.25;;;15.10;81.70;;;;;;5092590;28;20775;-88
2021/08/08 01:16:27;;;;;;;23.52;4.65;;;15.10;81.70;;;;;;5094157;28;20051;-92
2021/08/08 01:18:57;;;;;;;23.13;4.07;;;15.00;81.70;;;;;;5092715;28;20463;-87
2021/08/08 01:21:25;;;;;;;19.05;4.57;;;15.00;81.70;;;;;;5094069;28;20093;-91
2021/08/08 01:23:59;;;;;;;20.02;4.13;;;15.00;81.70;;;;;;5094747;28;20129;-90
2021/08/08 01:26:28;;;;;;;16.25;4.25;;;15.00;81.70;;;;;;5094152;28;20047;-90
2021/08/08 01:28:56;;;;;;;34.60;4.55;;;15.00;81.70;;;;;;5094100;28;20044;-90
2021/08/08 01:31:24;;;;;;;19.10;3.97;;;15.00;81.80;;;;;;5092683;28;20078;-89
2021/08/08 01:33:51;;;;;;;26.63;4.68;;;14.90;81.70;;;;;;5093893;28;20045;-89
2021/08/08 01:36:19;;;;;;;24.35;3.88;;;15.00;81.80;;;;;;5094025;28;20051;-90
2021/08/08 01:38:57;;;;;;;20.42;4.43;;;14.90;81.90;;;;;;5095181;28;20044;-90
2021/08/08 01:41:27;;;;;;;20.70;4.80;;;14.90;81.90;;;;;;5093430;28;20102;-91
2021/08/08 01:43:55;;;;;;;26.67;4.55;;;14.90;81.90;;;;;;5092634;28;20040;-90
2021/08/08 01:46:25;;;;;;;25.15;4.32;;;14.90;81.90;;;;;;5093572;28;20101;-88
2021/08/08 01:48:55;;;;;;;33.55;4.63;;;15.00;81.90;;;;;;5093385;28;20467;-88
2021/08/08 01:51:23;;;;;;;15.88;4.22;;;14.90;81.90;;;;;;5092358;28;20056;-88
2021/08/08 01:53:50;;;;;;;15.27;4.10;;;14.90;81.90;;;;;;5094268;28;20044;-88
2021/08/08 01:56:17;;;;;;;22.17;4.30;;;15.00;82.00;;;;;;5094314;28;20048;-87
2021/08/08 01:58:44;;;;;;;29.17;4.38;;;14.90;82.00;;;;;;5090868;28;20093;-90
2021/08/08 02:01:11;;;;;;;19.17;4.35;;;14.90;82.00;;;;;;5093234;28;20043;-91
2021/08/08 02:03:39;;;;;;;13.27;3.65;;;14.90;82.00;;;;;;5093367;28;20044;-89
2021/08/08 02:06:08;;;;;;;22.30;4.35;;;14.90;82.00;;;;;;5093374;28;20040;-90
2021/08/08 02:08:35;;;;;;;18.30;3.85;;;14.90;81.90;;;;;;5095355;28;20475;-89
2021/08/08 02:11:03;;;;;;;23.75;4.05;;;14.90;81.90;;;;;;5092817;28;20101;-90
2021/08/08 02:13:30;;;;;;;18.17;4.07;;;14.90;81.90;;;;;;5093353;28;20040;-90
2021/08/08 02:15:57;;;;;;;22.60;4.55;;;14.90;81.90;;;;;;5092583;28;20048;-88
2021/08/08 02:18:24;;;;;;;17.35;3.97;;;14.90;81.80;;;;;;5093242;28;20078;-90
2021/08/08 02:20:51;;;;;;;15.77;4.80;;;14.90;81.80;;;;;;5094083;28;20507;-89
2021/08/08 02:23:18;;;;;;;21.33;3.70;;;14.90;81.80;;;;;;5094184;28;20052;-90
2021/08/08 02:25:50;;;;;;;29.58;4.20;;;14.90;81.80;;;;;;5092407;28;20078;-89
2021/08/08 02:28:18;;;;;;;26.90;5.18;;;14.90;81.70;;;;;;5092823;28;20391;-89
2021/08/08 02:30:45;;;;;;;22.17;4.07;;;14.90;81.70;;;;;;5091429;28;20097;-90
2021/08/08 02:33:12;;;;;;;20.85;4.75;;;14.90;81.60;;;;;;5076901;28;20044;-91
2021/08/08 02:35:39;;;;;;;21.73;4.50;;;14.90;81.60;;;;;;5090452;28;20118;-88
2021/08/08 02:38:06;;;;;;;16.70;3.95;;;14.80;81.50;;;;;;5090969;28;20097;-90
2021/08/08 02:40:33;;;;;;;15.82;4.22;;;14.80;81.50;;;;;;5092538;28;20051;-90
2021/08/08 02:43:00;;;;;;;22.63;5.03;;;14.70;81.40;;;;;;5092475;28;20407;-87
2021/08/08 02:45:27;;;;;;;17.42;4.57;;;14.70;81.40;;;;;;5091403;28;20104;-88
2021/08/08 02:47:53;;;;;;;25.02;5.68;;;14.60;81.40;;;;;;5093034;28;20044;-89
2021/08/08 02:50:20;;;;;;;24.45;4.97;;;14.60;81.50;;;;;;5094073;28;20574;-89
2021/08/08 02:52:47;;;;;;;27.55;4.85;;;14.60;81.50;;;;;;5091617;28;20048;-89
2021/08/08 02:55:14;;;;;;;19.83;4.47;;;14.50;81.60;;;;;;5092360;28;20048;-88
2021/08/08 02:57:41;;;;;;;23.67;4.85;;;14.40;81.60;;;;;;5092364;28;20094;-88
2021/08/08 03:00:08;;;;;;;20.65;5.13;;;14.40;81.70;;;;;;5092248;28;20089;-87
2021/08/08 03:02:35;;;;;;;19.88;4.85;;;14.40;81.70;;;;;;5094207;28;20101;-88
2021/08/08 03:05:03;;;;;;;17.17;4.22;;;14.40;81.80;;;;;;5091907;28;20055;-89
2021/08/08 03:07:30;;;;;;;19.02;4.57;;;14.40;81.80;;;;;;5091874;28;20040;-88
2021/08/08 03:09:57;;;;;;;15.57;4.75;;;14.40;81.80;;;;;;5090579;28;20738;-87
2021/08/08 03:12:23;;;;;;;18.38;4.32;;;14.30;81.90;;;;;;5091960;28;20048;-88
2021/08/08 03:14:50;;;;;;;21.13;4.65;;;14.30;82.00;;;;;;5093052;28;20044;-88
2021/08/08 03:17:17;;;;;;;23.77;4.55;;;14.30;82.00;;;;;;5091382;28;20052;-88
2021/08/08 03:19:44;;;;;;;18.88;4.88;;;14.30;82.10;;;;;;5090416;28;20105;-88
2021/08/08 03:22:11;;;;;;;25.02;4.38;;;14.20;82.20;;;;;;5091273;28;20040;-87
2021/08/08 03:24:38;;;;;;;23.38;5.43;;;14.20;82.30;;;;;;5091596;28;20048;-87
2021/08/08 03:27:05;;;;;;;25.20;4.60;;;14.20;82.30;;;;;;5090678;28;20460;-87
2021/08/08 03:29:32;;;;;;;28.95;5.40;;;14.20;82.30;;;;;;5093666;28;20081;-87
2021/08/08 03:31:59;;;;;;;19.85;4.47;;;14.20;82.20;;;;;;5091616;28;20094;-90
2021/08/08 03:34:26;;;;;;;20.17;5.35;;;14.20;82.20;;;;;;5091199;28;20055;-88
2021/08/08 03:36:52;;;;;;;18.58;4.47;;;14.10;82.20;;;;;;5090940;28;20056;-89
2021/08/08 03:39:23;;;;;;;21.63;4.95;;;14.20;82.30;;;;;;5091265;28;20040;-88
2021/08/08 03:41:50;;;;;;;22.80;5.03;;;14.10;82.30;;;;;;5092348;28;20044;-87
2021/08/08 03:44:17;;;;;;;23.42;5.38;;;14.10;82.30;;;;;;5092483;28;20055;-90
2021/08/08 03:46:43;;;;;;;29.98;5.10;;;14.00;82.30;;;;;;5091070;28;20105;-89
2021/08/08 03:49:12;;;;;;;22.23;4.60;;;14.00;82.20;;;;;;5122289;27;20044;-91
2021/08/08 03:51:39;;;;;;;20.98;4.72;;;14.00;82.30;;;;;;5091005;28;20048;-87
2021/08/08 03:54:06;;;;;;;23.25;5.03;;;14.00;82.30;;;;;;5090655;28;20525;-90
2021/08/08 03:56:35;;;;;;;25.27;4.82;;;14.00;82.40;;;;;;5092500;28;20060;-90
2021/08/08 03:59:02;;;;;;;20.33;4.82;;;13.90;82.40;;;;;;5090803;28;20048;-88
2021/08/08 04:01:29;;;;;;;25.85;5.03;;;13.90;82.50;;;;;;5090987;28;20048;-88
2021/08/08 04:03:56;;;;;;;21.17;4.40;;;13.90;82.50;;;;;;5090757;28;20432;-91
2021/08/08 04:06:23;;;;;;;13.80;4.57;;;13.90;82.50;;;;;;5090511;28;20525;-89
2021/08/08 04:08:50;;;;;;;31.35;5.88;;;13.90;82.50;;;;;;5092249;28;20074;-89
2021/08/08 04:11:17;;;;;;;16.67;4.57;;;13.90;82.50;;;;;;5091893;28;20063;-90
2021/08/08 04:13:44;;;;;;;20.15;4.43;;;13.90;82.50;;;;;;5090600;28;20043;-88
2021/08/08 04:16:11;;;;;;;16.90;4.35;;;13.90;82.60;;;;;;5090520;28;20040;-87
2021/08/08 04:18:38;;;;;;;25.42;4.82;;;13.90;82.60;;;;;;5090727;28;20043;-89
2021/08/08 04:21:04;;;;;;;22.02;5.47;;;13.80;82.50;;;;;;5090349;28;20105;-90
2021/08/08 04:23:31;;;;;;;21.70;4.70;;;13.80;82.50;;;;;;5092614;28;20048;-88
2021/08/08 04:25:58;;;;;;;19.95;4.93;;;13.80;82.50;;;;;;5090289;28;20143;-90
2021/08/08 04:28:25;;;;;;;22.65;4.85;;;13.80;82.50;;;;;;5089199;28;20043;-89
2021/08/08 04:30:52;;;;;;;25.92;5.07;;;13.80;82.60;;;;;;5090442;28;20077;-89
2021/08/08 04:33:19;;;;;;;19.00;4.70;;;13.80;82.60;;;;;;5089294;28;20040;-87
2021/08/08 04:35:46;;;;;;;17.65;4.57;;;13.70;82.60;;;;;;5091343;28;20043;-88
2021/08/08 04:38:13;;;;;;;17.35;4.18;;;13.80;82.70;;;;;;5091149;28;20472;-87
2021/08/08 04:40:40;;;;;;;20.35;4.28;;;13.70;82.70;;;;;;5118508;27;20048;-90
2021/08/08 04:43:06;;;;;;;22.88;4.90;;;13.70;82.70;;;;;;5090259;28;20093;-88
2021/08/08 04:45:33;;;;;;;31.40;5.68;;;13.70;82.70;;;;;;5090377;28;20459;-89
2021/08/08 04:48:00;;;;;;;24.25;5.47;;;13.70;82.70;;;;;;5090318;28;20506;-90
2021/08/08 04:50:27;;;;;;;29.17;5.05;;;13.70;82.70;;;;;;5092028;28;20098;-89
2021/08/08 04:52:54;;;;;;;19.90;4.60;;;13.70;82.80;;;;;;5089964;28;20101;-90
2021/08/08 04:55:21;;;;;;;16.55;4.65;;;13.70;82.80;;;;;;5090134;28;20048;-88
2021/08/08 04:57:48;;;;;;;17.40;4.28;;;13.70;82.80;;;;;;5118310;28;20045;-87
2021/08/08 05:00:16;;;;;;;21.48;4.68;;;13.70;82.80;;;;;;5090322;28;20045;-89
2021/08/08 05:02:45;;;;;;;23.00;4.50;;;13.70;82.90;;;;;;5092117;28;20044;-88
2021/08/08 05:05:13;;;;;;;27.30;4.72;;;13.70;82.90;;;;;;5088814;28;20131;-89
2021/08/08 05:07:41;;;;;;;18.90;4.65;;;13.70;82.90;;;;;;5088783;28;20044;-89
2021/08/08 05:10:10;;;;;;;19.77;4.43;;;13.70;83.00;;;;;;5089910;28;20040;-88
2021/08/08 05:12:38;;;;;;;21.58;4.28;;;13.70;83.00;;;;;;5088953;28;20117;-89
2021/08/08 05:15:06;;;;;;;25.77;5.00;;;13.70;83.00;;;;;;5088910;28;20395;-90
2021/08/08 05:17:33;;;;;;;20.58;4.30;;;13.70;83.00;;;;;;5091802;28;20089;-88
2021/08/08 05:20:00;;;;;;;21.63;4.22;;;13.80;83.00;;;;;;5088783;28;20052;-87
2021/08/08 05:22:27;;;;;;;19.70;4.15;;;13.70;83.00;;;;;;5089738;28;20105;-86
2021/08/08 05:24:53;;;;;;;22.85;4.47;;;13.80;83.00;;;;;;5089756;28;20467;-87
2021/08/08 05:27:20;;;;;;;33.40;4.78;;;13.70;82.90;;;;;;5089925;28;20099;-89
2021/08/08 05:29:47;;;;;;;19.42;3.83;;;13.80;83.00;;;;;;5091198;28;20048;-88
2021/08/08 05:32:14;;;;;;;16.90;4.22;;;13.80;83.00;;;;;;5090258;28;20059;-89
2021/08/08 05:34:41;;;;;;;16.77;3.83;;;13.70;83.00;;;;;;5089747;28;20097;-89
2021/08/08 05:37:08;;;;;;;19.33;4.10;;;13.70;83.00;;;;;;5089672;28;20044;-88
2021/08/08 05:39:35;;;;;;;18.92;4.07;;;13.70;83.00;;;;;;5089811;28;20044;-87
2021/08/08 05:42:02;;;;;;;21.63;4.22;;;13.70;83.00;;;;;;5089767;28;20052;-86
2021/08/08 05:44:29;;;;;;;26.40;4.22;;;13.70;83.00;;;;;;5091985;28;20048;-90
2021/08/08 05:46:55;;;;;;;20.67;4.43;;;13.70;83.00;;;;;;5087837;28;20052;-87
2021/08/08 05:49:22;;;;;;;15.82;3.97;;;13.70;83.00;;;;;;5089578;28;20044;-87
2021/08/08 05:51:49;;;;;;;15.45;4.30;;;13.70;83.00;;;;;;5091976;28;20048;-87
2021/08/08 05:54:16;;;;;;;19.33;3.30;;;13.70;83.00;;;;;;5053182;28;20046;-87
2021/08/08 05:56:43;;;;;;;14.88;3.17;;;13.70;83.10;;;;;;5050540;28;20053;-88
2021/08/08 05:59:11;;;;;;;23.23;3.50;;;13.70;83.20;;;;;;5047408;28;20507;-85
2021/08/08 06:01:38;;;;;;;18.45;3.70;;;13.70;83.20;;;;;;5046721;28;20044;-88
2021/08/08 06:04:05;;;;;;;19.77;3.53;;;13.80;83.30;;;;;;5052177;28;20045;-87
2021/08/08 06:06:32;;;;;;;17.42;4.20;;;13.80;83.30;;;;;;5065163;28;20512;-88
2021/08/08 06:09:00;;;;;;;14.18;3.53;;;13.80;83.30;;;;;;5052218;28;20045;-86
2021/08/08 06:11:27;;;;;;;18.58;3.92;;;13.80;83.30;;;;;;5049746;28;20107;-87
2021/08/08 06:13:54;;;;;;;22.58;4.32;;;13.90;83.30;;;;;;5049382;28;20076;-88
2021/08/08 06:16:21;;;;;;;18.02;3.90;;;13.90;83.40;;;;;;5067309;28;20449;-88
2021/08/08 06:18:48;;;;;;;14.10;3.50;;;13.90;83.40;;;;;;5039686;28;20048;-87
2021/08/08 06:21:15;;;;;;;18.60;4.28;;;13.90;83.40;;;;;;5052283;28;20057;-86
2021/08/08 06:23:42;;;;;;;16.80;3.97;;;13.90;83.40;;;;;;5054379;28;20064;-86
2021/08/08 06:26:09;;;;;;;23.00;4.40;;;14.00;83.40;;;;;;5052431;28;20114;-86
2021/08/08 06:28:36;;;;;;;14.30;4.10;;;14.00;83.40;;;;;;5050940;28;20045;-88
2021/08/08 06:31:03;;;;;;;21.60;4.57;;;14.10;83.40;;;;;;5050469;28;20469;-88
2021/08/08 06:33:31;;;;;;;22.05;4.43;;;14.10;83.40;;;;;;5051858;28;20044;-86
2021/08/08 06:35:58;;;;;;;16.95;4.47;;;14.10;83.50;;;;;;5051065;28;20045;-88
2021/08/08 06:38:25;;;;;;;20.38;5.35;;;14.20;83.50;;;;;;5052274;28;20106;-88
2021/08/08 06:40:52;;;;;;;22.48;4.78;;;14.30;83.40;;;;;;5051833;28;20102;-86
2021/08/08 06:43:18;;;;;;;25.10;5.32;;;14.40;83.50;;;;;;5051986;28;20040;-87
2021/08/08 06:45:46;;;;;;;23.38;5.20;;;14.40;83.50;;;;;;5051590;28;20091;-88
2021/08/08 06:48:13;;;;;;;21.77;5.47;;;14.40;83.50;;;;;;5036110;28;20084;-86
2021/08/08 06:50:39;;;;;;;20.92;5.78;;;14.60;83.40;;;;;;5053742;28;20118;-86
2021/08/08 06:53:06;;;;;;;18.10;4.82;;;14.60;83.30;;;;;;5074436;28;20113;-88
2021/08/08 06:55:33;;;;;;;16.38;4.45;;;14.60;83.10;;;;;;5095607;28;20102;-88
2021/08/08 06:58:00;;;;;;;16.35;4.32;;;14.70;82.90;;;;;;5091753;28;20056;-88
2021/08/08 07:00:27;;;;;;;13.90;3.72;;;14.70;82.70;;;;;;5089727;28;20044;-89
2021/08/08 07:03:09;;;;;;;16.08;4.20;;;14.70;82.50;;;;;;5090883;28;20048;-88
2021/08/08 07:05:36;;;;;;;18.52;4.55;;;14.70;82.40;;;;;;5093690;28;20051;-90
2021/08/08 07:08:04;;;;;;;16.23;3.97;;;14.70;82.30;;;;;;5091970;28;20569;-88
2021/08/08 07:10:31;;;;;;;14.75;4.70;;;14.70;82.20;;;;;;5085685;28;20383;-89
2021/08/08 07:12:58;;;;;;;22.08;4.70;;;14.80;82.30;;;;;;5092059;28;20044;-87
2021/08/08 07:15:25;;;;;;;19.58;3.67;;;14.80;82.30;;;;;;5091649;28;20040;-90
2021/08/08 07:17:52;;;;;;;16.23;4.05;;;14.80;82.30;;;;;;5092340;28;20044;-92
2021/08/08 07:20:19;;;;;;;16.85;4.35;;;14.80;82.20;;;;;;5093149;28;20642;-87
2021/08/08 07:22:46;;;;;;;11.77;4.05;;;14.90;82.20;;;;;;5091589;28;20568;-91
2021/08/08 07:25:14;;;;;;;16.90;4.15;;;14.90;82.10;;;;;;5091353;28;20107;-89
2021/08/08 07:27:41;;;;;;;18.85;4.03;;;14.90;82.00;;;;;;5090269;28;20449;-88
2021/08/08 07:30:09;;;;;;;19.40;4.57;;;14.90;82.00;;;;;;5091230;28;20044;-88
2021/08/08 07:32:35;;;;;;;16.98;4.90;;;14.90;82.00;;;;;;5093272;28;20056;-88
2021/08/08 07:35:03;;;;;;;18.42;5.22;;;14.90;81.80;;;;;;5089846;28;20051;-89
2021/08/08 07:37:30;;;;;;;16.48;3.60;;;14.90;81.70;;;;;;5091124;28;20044;-89
2021/08/08 07:39:57;;;;;;;14.68;3.85;;;15.00;81.70;;;;;;5091205;28;20051;-87
2021/08/08 07:42:24;;;;;;;11.70;3.53;;;15.00;81.40;;;;;;5090798;28;20097;-83
2021/08/08 07:44:52;;;;;;;15.38;3.88;;;15.10;81.40;;;;;;5092516;28;20093;-89
2021/08/08 07:47:19;;;;;;;13.15;3.92;;;15.20;81.20;;;;;;5091935;28;20048;-90
2021/08/08 07:49:46;;;;;;;15.50;3.97;;;15.20;81.40;;;;;;5088772;28;20524;-90
2021/08/08 07:52:13;;;;;;;21.95;4.55;;;15.20;81.20;;;;;;5089603;28;20044;-90
2021/08/08 07:54:40;;;;;;;14.27;4.03;;;15.30;81.10;;;;;;5098307;28;20051;-89
2021/08/08 07:57:07;;;;;;;12.65;3.75;;;15.30;80.90;;;;;;5088422;28;20056;-88
2021/08/08 07:59:34;;;;;;;12.55;4.07;;;15.40;80.90;;;;;;5092377;28;20044;-88
2021/08/08 08:02:01;;;;;;;13.60;3.97;;;15.40;80.60;;;;;;5090023;28;20395;-88
2021/08/08 08:04:28;;;;;;;17.23;3.90;;;15.40;80.50;;;;;;5091726;28;20055;-89
2021/08/08 08:06:57;;;;;;;14.85;3.72;;;15.50;80.60;;;;;;5087574;28;20048;-88
2021/08/08 08:09:24;;;;;;;15.60;4.00;;;15.60;80.50;;;;;;5088311;28;20399;-86
2021/08/08 08:11:51;;;;;;;18.95;5.20;;;15.70;80.40;;;;;;5088690;28;20056;-88
2021/08/08 08:14:18;;;;;;;17.23;4.35;;;15.80;80.00;;;;;;5091506;28;20055;-86
2021/08/08 08:16:45;;;;;;;15.10;4.40;;;15.90;79.50;;;;;;5090336;28;20117;-87
2021/08/08 08:19:12;;;;;;;12.43;4.25;;;15.90;79.30;;;;;;5090598;28;20073;-88
2021/08/08 08:21:39;;;;;;;15.07;5.05;;;16.00;79.00;;;;;;5088746;28;20052;-88
2021/08/08 08:24:06;;;;;;;10.68;4.13;;;16.10;78.20;;;;;;5090398;28;20040;-88
2021/08/08 08:26:33;;;;;;;12.73;4.90;;;16.20;78.10;;;;;;5092249;28;20086;-87
2021/08/08 08:29:01;;;;;;;12.90;5.00;;;16.20;78.20;;;;;;5090721;28;20130;-90
2021/08/08 08:31:27;;;;;;;15.27;4.85;;;16.30;78.30;;;;;;5089111;28;20410;-91
2021/08/08 08:33:54;;;;;;;19.48;5.15;;;16.40;78.00;;;;;;5090418;28;20739;-88
2021/08/08 08:36:21;;;;;;;15.55;4.95;;;16.50;77.80;;;;;;5090692;28;20043;-95
2021/08/08 08:38:48;;;;;;;17.63;4.82;;;16.60;77.60;;;;;;5092362;28;20105;-91
2021/08/08 08:41:17;;;;;;;15.27;4.47;;;16.80;77.40;;;;;;5072466;28;20048;-92
2021/08/08 08:43:44;;;;;;;16.60;4.60;;;16.80;77.10;;;;;;5085531;28;20101;-91
2021/08/08 08:46:13;;;;;;;14.50;4.85;;;16.90;76.90;;;;;;5083159;28;20555;-88
2021/08/08 08:48:43;;;;;;;14.90;5.45;;;17.10;76.70;;;;;;5087137;28;20105;-90
2021/08/08 08:51:14;;;;;;;13.32;4.10;;;17.20;76.40;;;;;;5090238;28;20769;-91
2021/08/08 08:53:43;;;;;;;17.10;4.47;;;17.30;76.30;;;;;;5085213;28;20048;-87
2021/08/08 08:56:10;;;;;;;14.57;4.07;;;17.40;75.60;;;;;;5083538;28;20044;-90
2021/08/08 08:58:38;;;;;;;15.43;3.78;;;17.40;74.60;;;;;;5091699;28;20098;-91
2021/08/08 09:01:05;;;;;;;10.82;3.50;;;17.40;74.40;;;;;;5088709;28;20079;-90
2021/08/08 09:03:32;;;;;;;13.63;3.75;;;17.50;74.40;;;;;;5086988;28;20051;-88
2021/08/08 09:05:59;;;;;;;14.02;3.83;;;17.50;74.30;;;;;;5090750;28;20083;-89
2021/08/08 09:08:26;;;;;;;12.45;4.00;;;17.50;73.50;;;;;;5091881;28;20051;-91
2021/08/08 09:11:07;;;;;;;14.73;3.72;;;17.60;74.00;;;;;;5091911;28;20050;-89
2021/08/08 09:13:54;;;;;;;11.75;3.88;;;17.70;74.10;;;;;;5088680;28;20052;-88
2021/08/08 09:16:23;;;;;;;16.25;3.40;;;17.90;73.60;;;;;;5088188;28;20044;-87
2021/08/08 09:18:55;;;;;;;15.70;3.60;;;17.90;73.10;;;;;;5089946;28;20040;-87
2021/08/08 09:21:23;;;;;;;14.25;4.15;;;17.90;72.90;;;;;;5090204;28;20089;-88
2021/08/08 09:24:02;;;;;;;9.27;3.00;;;18.00;72.90;;;;;;5091760;28;20109;-90
2021/08/08 09:26:34;;;;;;;12.88;3.30;;;18.00;73.00;;;;;;5095280;28;20048;-88
2021/08/08 09:29:05;;;;;;;10.57;3.05;;;18.00;70.80;;;;;;5092322;28;20059;-89
2021/08/08 09:31:41;;;;;;;8.70;2.63;;;18.00;71.40;;;;;;5086820;28;20101;-88
2021/08/08 09:34:09;;;;;;;12.75;3.10;;;18.10;72.00;;;;;;5095946;28;20058;-90
2021/08/08 09:36:42;;;;;;;9.65;3.35;;;18.10;71.90;;;;;;5092255;28;20123;-90
2021/08/08 09:39:09;;;;;;;9.10;3.20;;;18.10;71.90;;;;;;5093788;28;20101;-91
2021/08/08 09:41:36;;;;;;;14.95;3.05;;;18.20;72.10;;;;;;5095942;28;20101;-88
2021/08/08 09:44:08;;;;;;;13.23;3.35;;;18.20;71.20;;;;;;5088586;28;20563;-88
2021/08/08 09:46:36;;;;;;;17.70;3.50;;;18.20;71.40;;;;;;5087837;28;20047;-91
2021/08/08 09:49:13;;;;;;;12.10;2.97;;;18.20;71.50;;;;;;5093835;28;20048;-91
2021/08/08 09:51:47;;;;;;;12.27;3.15;;;18.20;71.70;;;;;;5094240;28;20044;-90
2021/08/08 09:54:14;;;;;;;15.23;3.10;;;18.30;71.50;;;;;;5090835;28;20048;-88
2021/08/08 09:56:41;;;;;;;17.13;3.97;;;18.30;71.10;;;;;;5091370;28;20097;-87
2021/08/08 09:59:08;;;;;;;14.18;3.17;;;18.40;70.60;;;;;;5093235;28;20044;-92
2021/08/08 10:01:39;;;;;;;9.27;3.20;;;18.40;71.20;;;;;;5091113;28;20052;-89
2021/08/08 10:04:07;;;;;;;13.30;3.35;;;18.50;71.70;;;;;;5093578;28;20055;-88
2021/08/08 10:06:36;;;;;;;12.88;3.28;;;18.70;71.40;;;;;;5092453;28;20108;-91
2021/08/08 10:09:05;;;;;;;11.52;3.20;;;18.70;70.80;;;;;;5092076;28;20048;-90
2021/08/08 10:11:33;;;;;;;14.95;3.33;;;18.80;70.40;;;;;;5094021;28;20081;-86
2021/08/08 10:14:03;;;;;;;14.27;2.97;;;18.90;70.70;;;;;;5092399;28;20048;-88
2021/08/08 10:16:32;;;;;;;14.85;3.38;;;19.00;70.20;;;;;;5090910;28;20109;-89
2021/08/08 10:19:03;;;;;;;10.60;3.13;;;19.10;70.10;;;;;;5091489;28;20056;-90
2021/08/08 10:21:31;;;;;;;14.02;3.33;;;19.20;69.90;;;;;;5092476;28;20093;-89
2021/08/08 10:24:04;;;;;;;11.00;3.63;;;19.30;69.30;;;;;;5093449;28;20056;-89
2021/08/08 10:26:31;;;;;;;9.23;2.78;;;19.30;68.10;;;;;;5093240;28;20074;-87
2021/08/08 10:29:00;;;;;;;8.48;2.88;;;19.40;68.40;;;;;;5090003;28;20069;-87
2021/08/08 10:31:29;;;;;;;16.08;3.72;;;19.30;68.30;;;;;;5092573;28;20101;-91
2021/08/08 10:33:58;;;;;;;11.02;3.65;;;19.30;68.60;;;;;;5092478;28;20060;-88
2021/08/08 10:36:33;;;;;;;16.35;3.55;;;19.40;69.10;;;;;;5090122;28;20041;-89
2021/08/08 10:39:08;;;;;;;9.32;3.13;;;19.50;69.50;;;;;;5091500;28;20048;-87
2021/08/08 10:41:35;;;;;;;13.35;3.75;;;19.60;69.40;;;;;;5094749;28;20044;-91
2021/08/08 10:44:06;;;;;;;9.38;3.30;;;19.70;68.80;;;;;;5093165;28;20467;-88
2021/08/08 10:46:46;;;;;;;13.65;3.53;;;19.90;68.60;;;;;;5092907;28;20044;-90
2021/08/08 10:49:13;;;;;;;14.40;3.50;;;19.90;68.30;;;;;;5093125;28;20044;-92
2021/08/08 10:51:40;;;;;;;10.23;3.10;;;20.00;67.40;;;;;;5092655;28;20048;-90
2021/08/08 10:54:08;;;;;;;9.20;3.45;;;20.10;66.40;;;;;;5092409;28;20098;-90
2021/08/08 10:56:47;;;;;;;14.90;4.10;;;20.20;66.80;;;;;;5095989;28;20054;-89
2021/08/08 10:59:26;;;;;;;9.65;2.63;;;20.30;66.60;;;;;;5093738;28;20566;-88
2021/08/08 11:02:11;;;;;;;13.55;3.40;;;20.40;65.70;;;;;;5091935;28;20097;-86
2021/08/08 11:04:38;;;;;;;9.43;3.03;;;20.50;65.20;;;;;;5090727;28;20145;-86
2021/08/08 11:07:06;;;;;;;11.25;3.10;;;20.60;65.80;;;;;;5091511;28;20456;-85
2021/08/08 11:09:35;;;;;;;10.10;3.13;;;20.60;65.10;;;;;;5091971;28;20506;-90
2021/08/08 11:12:03;;;;;;;9.05;2.80;;;20.70;64.40;;;;;;5091789;28;20101;-85
2021/08/08 11:14:31;;;;;;;10.32;2.83;;;20.70;63.70;;;;;;5093919;28;20563;-83
2021/08/08 11:17:06;;;;;;;11.57;3.03;;;20.70;63.40;;;;;;5091631;28;20138;-85
2021/08/08 11:19:51;;;;;;;16.25;2.97;;;20.70;63.70;;;;;;5091753;28;20036;-86
2021/08/08 11:22:20;;;;;;;9.75;3.08;;;20.70;64.30;;;;;;5091144;28;20044;-89
2021/08/08 11:25:12;;;;;;;8.07;2.45;;;20.80;63.80;;;;;;5091727;28;20078;-86
2021/08/08 11:27:44;;;;;;;13.68;3.13;;;20.90;62.80;;;;;;5079168;28;20040;-87
2021/08/08 11:30:16;;;;;;;8.23;2.63;;;20.90;62.20;;;;;;5091657;28;20817;-84
2021/08/08 11:32:43;;;;;;;11.13;3.00;;;20.90;61.00;;;;;;5088471;28;20509;-86
2021/08/08 11:35:13;;;;;;;8.60;2.95;;;20.90;62.00;;;;;;5090218;28;20101;-85
2021/08/08 11:37:42;;;;;;;9.80;2.65;;;21.00;62.50;;;;;;5089673;28;20039;-86
2021/08/08 11:40:36;;;;;;;8.60;2.83;;;21.10;62.70;;;;;;5090112;28;20040;-87
2021/08/08 11:43:06;;;;;;;9.30;2.78;;;21.20;62.30;;;;;;5087597;28;20040;-86
2021/08/08 11:45:33;;;;;;;9.13;2.63;;;21.40;61.70;;;;;;5090216;28;20089;-88
2021/08/08 11:48:01;;;;;;;8.27;2.65;;;21.40;61.60;;;;;;5090577;28;20048;-88
2021/08/08 11:50:29;;;;;;;7.43;2.50;;;21.40;59.90;;;;;;5092822;28;20048;-89
2021/08/08 11:53:00;;;;;;;9.00;2.30;;;21.40;60.10;;;;;;5090774;28;20060;-89
2021/08/08 11:55:30;;;;;;;8.10;2.40;;;21.40;60.50;;;;;;5090964;28;20390;-86
2021/08/08 11:58:11;;;;;;;6.90;2.15;;;21.50;60.60;;;;;;5089816;28;20070;-89
2021/08/08 12:00:40;;;;;;;7.80;2.63;;;21.50;60.80;;;;;;5091052;28;20047;-87
2021/08/08 12:03:09;;;;;;;12.43;2.22;;;21.60;60.30;;;;;;5090897;28;20090;-85
2021/08/08 12:05:38;;;;;;;7.55;2.25;;;21.60;60.80;;;;;;5092641;28;20504;-88
2021/08/08 12:08:06;;;;;;;5.78;2.08;;;21.60;59.20;;;;;;5090819;28;20101;-87
2021/08/08 12:10:38;;;;;;;10.65;2.65;;;21.60;59.00;;;;;;5090683;28;20044;-89
2021/08/08 12:13:18;;;;;;;9.43;2.60;;;21.60;59.80;;;;;;5090659;28;20094;-89
2021/08/08 12:15:45;;;;;;;10.73;2.90;;;21.60;59.60;;;;;;5089422;28;20517;-87
2021/08/08 12:18:15;;;;;;;10.30;3.13;;;21.70;59.70;;;;;;5071806;28;20044;-88
2021/08/08 12:20:42;;;;;;;13.98;2.67;;;21.70;59.70;;;;;;5088585;28;20097;-88
2021/08/08 12:23:14;;;;;;;8.70;2.65;;;21.80;60.20;;;;;;5088116;28;20105;-88
2021/08/08 12:25:45;;;;;;;9.02;2.38;;;21.90;59.60;;;;;;5090513;28;20085;-88
2021/08/08 12:28:23;;;;;;;8.73;2.25;;;22.10;59.70;;;;;;5090503;28;20040;-86
2021/08/08 12:30:49;;;;;;;16.70;2.90;;;22.20;59.60;;;;;;5090481;28;20044;-89
2021/08/08 12:33:19;;;;;;;8.18;2.28;;;22.30;59.00;;;;;;5090076;28;20557;-91
2021/08/08 12:35:46;;;;;;;11.18;2.40;;;22.40;58.80;;;;;;5088902;28;20519;-88
2021/08/08 12:38:16;;;;;;;7.28;2.28;;;22.40;58.90;;;;;;5089440;28;20089;-87
2021/08/08 12:40:49;;;;;;;10.85;2.55;;;22.40;58.60;;;;;;5088663;28;20044;-92
2021/08/08 12:43:20;;;;;;;8.40;2.10;;;22.40;57.80;;;;;;5089119;28;20044;-88
2021/08/08 12:45:48;;;;;;;10.65;2.67;;;22.40;57.90;;;;;;5090455;28;20134;-89